createdAt,value
2023-05-24T04:15:08.324Z,208.00
2023-05-24T04:16:08.284Z,212.00
2023-05-24T04:17:08.317Z,224.00
2023-05-24T04:18:08.392Z,236.00
2023-05-24T04:19:08.259Z,256.00
2023-05-24T04:20:08.323Z,268.00
2023-05-24T04:21:08.250Z,276.00
2023-05-24T04:22:08.223Z,288.00
2023-05-24T04:23:08.232Z,300.00
2023-05-24T04:24:08.232Z,308.00
2023-05-24T04:25:08.297Z,316.00
2023-05-24T04:26:08.215Z,324.00
2023-05-24T04:27:08.212Z,332.00
2023-05-24T04:28:08.204Z,352.00
2023-05-24T04:29:08.208Z,376.00
2023-05-24T04:30:08.213Z,396.00
2023-05-24T04:31:08.238Z,420.00
2023-05-24T04:32:08.184Z,436.00
2023-05-24T04:33:08.303Z,448.00
2023-05-24T04:34:08.252Z,464.00
2023-05-24T04:35:08.199Z,476.00
2023-05-24T04:36:08.190Z,484.00
2023-05-24T04:37:08.168Z,492.00
2023-05-24T04:38:08.162Z,508.00
2023-05-24T04:39:08.167Z,516.00
2023-05-24T04:40:08.178Z,524.00
2023-05-24T04:41:08.173Z,544.00
2023-05-24T04:42:08.137Z,564.00
2023-05-24T04:43:08.152Z,576.00
2023-05-24T04:44:08.143Z,584.00
2023-05-24T04:45:08.151Z,580.00
2023-05-24T04:46:09.126Z,584.00
2023-05-24T04:47:08.234Z,572.00
2023-05-24T04:48:08.187Z,548.00
2023-05-24T04:49:08.132Z,536.00
2023-05-24T04:50:08.139Z,532.00
2023-05-24T04:51:08.128Z,524.00
2023-05-24T04:52:08.113Z,524.00
2023-05-24T04:53:08.108Z,516.00
2023-05-24T04:54:08.129Z,508.00
2023-05-24T04:55:08.117Z,516.00
2023-05-24T04:56:08.102Z,532.00
2023-05-24T04:57:08.105Z,560.00
2023-05-24T04:58:08.958Z,588.00
2023-05-24T04:59:08.086Z,632.00
2023-05-24T05:00:08.107Z,680.00
2023-05-24T05:01:08.091Z,728.00
2023-05-24T05:02:08.121Z,756.00
2023-05-24T05:03:08.235Z,760.00
2023-05-24T05:04:08.170Z,748.00
2023-05-24T05:05:08.074Z,716.00
2023-05-24T05:06:08.091Z,672.00
2023-05-24T05:07:08.108Z,652.00
2023-05-24T05:08:08.074Z,664.00
2023-05-24T05:09:09.077Z,696.00
2023-05-24T05:10:08.071Z,724.00
2023-05-24T05:11:08.059Z,736.00
2023-05-24T05:12:08.042Z,752.00
2023-05-24T05:13:08.055Z,776.00
2023-05-24T05:14:08.029Z,804.00
2023-05-24T05:15:08.046Z,852.00
2023-05-24T05:16:08.073Z,868.00
2023-05-24T05:17:08.048Z,888.00
2023-05-24T05:18:08.107Z,924.00
2023-05-24T05:19:08.042Z,952.00
2023-05-24T05:20:08.056Z,964.00
2023-05-24T05:21:08.043Z,972.00
2023-05-24T05:22:08.003Z,976.00
2023-05-24T05:23:08.026Z,980.00
2023-05-24T05:24:08.001Z,976.00
2023-05-24T05:25:08.007Z,968.00
2023-05-24T05:26:08.016Z,996.00
2023-05-24T05:27:08.006Z,988.00
2023-05-24T05:28:07.992Z,968.00
2023-05-24T05:29:07.998Z,944.00
2023-05-24T05:30:07.986Z,928.00
2023-05-24T05:31:07.982Z,920.00
2023-05-24T05:32:08.016Z,924.00
2023-05-24T05:33:08.067Z,916.00
2023-05-24T05:34:07.978Z,900.00
2023-05-24T05:35:08.006Z,904.00
2023-05-24T05:36:07.987Z,932.00
2023-05-24T05:37:07.997Z,944.00
2023-05-24T05:38:07.964Z,952.00
2023-05-24T05:39:07.970Z,956.00
2023-05-24T05:40:07.964Z,972.00
2023-05-24T05:41:07.955Z,1000.00
2023-05-24T05:42:07.973Z,1040.00
2023-05-24T05:43:07.947Z,1072.00
2023-05-24T05:44:07.975Z,1092.00
2023-05-24T05:45:07.944Z,1112.00
2023-05-24T05:46:08.004Z,1140.00
2023-05-24T05:47:08.189Z,1180.00
2023-05-24T05:48:08.026Z,1204.00
2023-05-24T05:49:07.936Z,1236.00
2023-05-24T05:50:07.935Z,1256.00
2023-05-24T05:51:07.948Z,1280.00
2023-05-24T05:52:08.027Z,1280.00
2023-05-24T05:53:07.939Z,1292.00
2023-05-24T05:54:07.948Z,1312.00
2023-05-24T05:55:07.946Z,1328.00
2023-05-24T05:56:07.989Z,1392.00
2023-05-24T05:57:07.970Z,1348.00
2023-05-24T05:58:07.932Z,1356.00
2023-05-24T05:59:07.935Z,1364.00
2023-05-24T06:00:08.310Z,1384.00
2023-05-24T06:01:07.932Z,1388.00
2023-05-24T06:02:08.050Z,1404.00
2023-05-24T06:03:08.076Z,1416.00
2023-05-24T06:04:08.102Z,1416.00
2023-05-24T06:05:07.888Z,1432.00
2023-05-24T06:06:07.922Z,1452.00
2023-05-24T06:07:07.931Z,1492.00
2023-05-24T06:08:07.932Z,1504.00
2023-05-24T06:09:07.885Z,1492.00
2023-05-24T06:10:07.905Z,1504.00
2023-05-24T06:11:07.897Z,1536.00
2023-05-24T06:12:07.872Z,1616.00
2023-05-24T06:13:07.952Z,2096.00
2023-05-24T06:14:07.880Z,2976.00
2023-05-24T06:15:07.859Z,2020.00
2023-05-24T06:16:07.921Z,1592.00
2023-05-24T06:17:07.885Z,1532.00
2023-05-24T06:18:07.862Z,1544.00
2023-05-24T06:19:07.857Z,1576.00
2023-05-24T06:20:07.904Z,1624.00
2023-05-24T06:21:08.012Z,1712.00
2023-05-24T06:22:07.883Z,1840.00
2023-05-24T06:23:07.988Z,2492.00
2023-05-24T06:24:07.842Z,2288.00
2023-05-24T06:25:07.843Z,3288.00
2023-05-24T06:26:07.905Z,2084.00
2023-05-24T06:27:08.683Z,2044.00
2023-05-24T06:28:07.825Z,2072.00
2023-05-24T06:29:07.908Z,2780.00
2023-05-24T06:30:07.871Z,3324.00
2023-05-24T06:31:07.922Z,2572.00
2023-05-24T06:32:07.849Z,4812.00
2023-05-24T06:33:07.920Z,5296.00
2023-05-24T06:34:07.841Z,5412.00
2023-05-24T06:35:07.887Z,3044.00
2023-05-24T06:36:07.825Z,2604.00
2023-05-24T06:37:07.808Z,2596.00
2023-05-24T06:38:07.855Z,2636.00
2023-05-24T06:39:07.834Z,3452.00
2023-05-24T06:40:07.819Z,5608.00
2023-05-24T06:41:07.825Z,5524.00
2023-05-24T06:42:07.872Z,3184.00
2023-05-24T06:43:07.908Z,3724.00
2023-05-24T06:44:07.810Z,3464.00
2023-05-24T06:45:07.781Z,4192.00
2023-05-24T06:46:07.797Z,3860.00
2023-05-24T06:49:40.433Z,2296.00
2023-05-24T06:50:41.737Z,2256.00
2023-05-24T06:51:40.326Z,2232.00
2023-05-24T06:52:40.317Z,2208.00
2023-05-24T06:53:40.370Z,2180.00
2023-05-24T06:54:40.377Z,2152.00
2023-05-24T06:55:40.307Z,2156.00
2023-05-24T06:56:40.409Z,2236.00
2023-05-24T06:57:40.315Z,2296.00
2023-05-24T06:58:40.363Z,2372.00
2023-05-24T06:59:40.361Z,2484.00
2023-05-24T07:00:40.439Z,2468.00
2023-05-24T07:02:40.385Z,2752.00
2023-05-24T07:03:40.298Z,2692.00
2023-05-24T07:04:40.379Z,2820.00
2023-05-24T07:05:40.370Z,2828.00
2023-05-24T07:06:40.311Z,3544.00
2023-05-24T07:07:40.352Z,4296.00
2023-05-24T07:08:40.342Z,3876.00
2023-05-24T07:09:40.363Z,2828.00
2023-05-24T07:10:41.042Z,2740.00
2023-05-24T07:11:40.358Z,2700.00
2023-05-24T07:12:40.280Z,2616.00
2023-05-24T07:13:40.315Z,2536.00
2023-05-24T07:14:40.275Z,2404.00
2023-05-24T07:15:40.332Z,2320.00
2023-05-24T07:16:40.348Z,2348.00
2023-05-24T07:17:40.384Z,2448.00
2023-05-24T07:18:40.311Z,2596.00
2023-05-24T07:19:40.267Z,2688.00
2023-05-24T07:20:40.668Z,2712.00
2023-05-24T07:21:40.289Z,2572.00
2023-05-24T07:22:40.318Z,2420.00
2023-05-24T07:23:40.284Z,2268.00
2023-05-24T07:24:40.273Z,2252.00
2023-05-24T07:25:40.291Z,2384.00
2023-05-24T07:26:40.325Z,2644.00
2023-05-24T07:27:40.362Z,2868.00
2023-05-24T07:28:40.320Z,2932.00
2023-05-24T07:29:40.320Z,2864.00
2023-05-24T07:30:40.436Z,2992.00
2023-05-24T07:31:40.419Z,2976.00
2023-05-24T07:32:40.474Z,2856.00
2023-05-24T07:33:40.429Z,2616.00
2023-05-24T07:34:40.350Z,2360.00
2023-05-24T07:35:40.316Z,2152.00
2023-05-24T07:36:40.284Z,2284.00
2023-05-24T07:37:40.263Z,2528.00
2023-05-24T07:38:40.440Z,2636.00
2023-05-24T07:39:40.251Z,2448.00
2023-05-24T07:40:40.479Z,2136.00
2023-05-24T07:41:40.333Z,2196.00
2023-05-24T07:42:40.271Z,2228.00
2023-05-24T07:43:40.292Z,2140.00
2023-05-24T07:44:40.339Z,2196.00
2023-05-24T07:45:40.357Z,2228.00
2023-05-24T07:46:40.866Z,2372.00
2023-05-24T07:47:40.293Z,2636.00
2023-05-24T07:48:40.414Z,2724.00
2023-05-24T07:49:40.252Z,2764.00
2023-05-24T07:50:40.480Z,2932.00
2023-05-24T07:51:40.266Z,3048.00
2023-05-24T07:52:40.233Z,2936.00
2023-05-24T07:53:40.281Z,2748.00
2023-05-24T07:54:40.272Z,2540.00
2023-05-24T07:55:40.393Z,2348.00
2023-05-24T07:56:40.336Z,2164.00
2023-05-24T07:57:40.834Z,1984.00
2023-05-24T07:58:40.259Z,1796.00
2023-05-24T07:59:40.217Z,1668.00
2023-05-24T08:00:40.229Z,1540.00
2023-05-24T08:01:40.222Z,1452.00
2023-05-24T08:02:40.346Z,1448.00
2023-05-24T08:03:40.325Z,1456.00
2023-05-24T08:04:40.333Z,1400.00
2023-05-24T08:05:40.350Z,1332.00
2023-05-24T08:06:40.292Z,1288.00
2023-05-24T08:07:40.234Z,1288.00
2023-05-24T08:08:40.281Z,1272.00
2023-05-24T08:09:40.230Z,1268.00
2023-05-24T08:10:40.199Z,1280.00
2023-05-24T08:11:40.257Z,1296.00
2023-05-24T08:12:40.184Z,1280.00
2023-05-24T08:13:40.179Z,1260.00
2023-05-24T08:15:40.392Z,1160.00
2023-05-24T08:16:40.290Z,1108.00
2023-05-24T08:17:40.237Z,1080.00
2023-05-24T08:18:40.202Z,1072.00
2023-05-24T08:19:40.235Z,1048.00
2023-05-24T08:20:40.296Z,1088.00
2023-05-24T08:21:40.171Z,1108.00
2023-05-24T08:22:40.191Z,1108.00
2023-05-24T08:23:40.235Z,1076.00
2023-05-24T08:24:40.225Z,1108.00
2023-05-24T08:25:40.200Z,1208.00
2023-05-24T08:26:40.167Z,1300.00
2023-05-24T08:27:40.164Z,1340.00
2023-05-24T08:28:40.251Z,1368.00
2023-05-24T08:29:40.182Z,1424.00
2023-05-24T08:30:40.212Z,1516.00
2023-05-24T08:31:40.218Z,1516.00
2023-05-24T08:32:40.193Z,1492.00
2023-05-24T08:33:40.175Z,1432.00
2023-05-24T08:34:40.169Z,1380.00
2023-05-24T08:35:40.386Z,1356.00
2023-05-24T08:36:40.140Z,1312.00
2023-05-24T08:37:41.203Z,1244.00
2023-05-24T08:38:40.161Z,1160.00
2023-05-24T08:39:40.140Z,1092.00
2023-05-24T08:40:40.222Z,1068.00
2023-05-24T08:41:40.178Z,1056.00
2023-05-24T08:42:40.178Z,1028.00
2023-05-24T08:43:40.141Z,988.00
2023-05-24T08:44:40.128Z,960.00
2023-05-24T08:45:40.257Z,964.00
2023-05-24T08:46:40.270Z,944.00
2023-05-24T08:47:40.226Z,924.00
2023-05-24T08:48:40.229Z,952.00
2023-05-24T08:49:40.130Z,952.00
2023-05-24T08:50:40.186Z,908.00
2023-05-24T08:51:40.394Z,888.00
2023-05-24T08:52:40.239Z,876.00
2023-05-24T08:53:40.119Z,908.00
2023-05-24T08:54:40.108Z,936.00
2023-05-24T08:55:40.307Z,948.00
2023-05-24T08:56:40.118Z,960.00
2023-05-24T08:57:40.202Z,1012.00
2023-05-24T08:58:40.141Z,1040.00
2023-05-24T08:59:40.098Z,1064.00
2023-05-24T09:00:40.087Z,1172.00
2023-05-24T09:01:40.105Z,1228.00
2023-05-24T09:02:40.167Z,1232.00
2023-05-24T09:03:40.433Z,1196.00
2023-05-24T09:04:40.097Z,1244.00
2023-05-24T09:05:40.325Z,1312.00
2023-05-24T09:06:40.126Z,1324.00
2023-05-24T09:07:40.092Z,1320.00
2023-05-24T09:08:41.776Z,1316.00
2023-05-24T09:09:40.070Z,1316.00
2023-05-24T09:10:53.168Z,1296.00
2023-05-24T09:11:40.188Z,1284.00
2023-05-24T09:12:40.055Z,1264.00
2023-05-24T09:13:40.141Z,1272.00
2023-05-24T09:14:40.089Z,1304.00
2023-05-24T09:15:40.168Z,1428.00
2023-05-24T09:16:40.255Z,1616.00
2023-05-24T09:17:42.191Z,1808.00
2023-05-24T09:18:40.047Z,1920.00
2023-05-24T09:19:40.105Z,1964.00
2023-05-24T09:20:40.168Z,2040.00
2023-05-24T09:21:40.033Z,2112.00
2023-05-24T09:22:41.569Z,2060.00
2023-05-24T09:23:40.048Z,2040.00
2023-05-24T09:24:40.051Z,1940.00
2023-05-24T09:25:40.051Z,1852.00
2023-05-24T09:26:40.058Z,1824.00
2023-05-24T09:27:40.097Z,1784.00
2023-05-24T09:31:12.955Z,1756.00
2023-05-24T09:32:12.774Z,1680.00
2023-05-24T09:33:12.789Z,1616.00
2023-05-24T09:34:12.679Z,1632.00
2023-05-24T09:35:12.793Z,1700.00
2023-05-24T09:36:12.675Z,1724.00
2023-05-24T09:37:12.706Z,1704.00
2023-05-24T09:38:12.734Z,1700.00
2023-05-24T09:39:12.658Z,1720.00
2023-05-24T09:40:12.707Z,1848.00
2023-05-24T09:41:12.657Z,1956.00
2023-05-24T09:42:12.652Z,2080.00
2023-05-24T09:43:12.730Z,2176.00
2023-05-24T09:44:12.893Z,2252.00
2023-05-24T09:45:12.739Z,2368.00
2023-05-24T09:46:12.652Z,2464.00
2023-05-24T09:47:12.914Z,2528.00
2023-05-24T09:48:12.833Z,2548.00
2023-05-24T09:49:12.645Z,2472.00
2023-05-24T09:50:12.663Z,2496.00
2023-05-24T09:51:12.873Z,2516.00
2023-05-24T09:52:12.636Z,2464.00
2023-05-24T09:53:12.677Z,2424.00
2023-05-24T09:54:12.641Z,2392.00
2023-05-24T09:55:12.667Z,2372.00
2023-05-24T09:56:12.629Z,2444.00
2023-05-24T09:57:12.620Z,2368.00
2023-05-24T09:58:12.637Z,2200.00
2023-05-24T09:59:12.631Z,2056.00
2023-05-24T10:00:12.690Z,1996.00
2023-05-24T10:01:12.668Z,2132.00
2023-05-24T10:02:12.657Z,2156.00
2023-05-24T10:03:13.166Z,2120.00
2023-05-24T10:04:12.650Z,2116.00
2023-05-24T10:05:12.630Z,2184.00
2023-05-24T10:06:12.623Z,2216.00
2023-05-24T10:07:12.642Z,2096.00
2023-05-24T10:08:12.615Z,2020.00
2023-05-24T10:09:12.627Z,2008.00
2023-05-24T10:10:12.587Z,2012.00
2023-05-24T10:11:12.602Z,1968.00
2023-05-24T10:12:12.617Z,2016.00
2023-05-24T10:13:12.602Z,2152.00
2023-05-24T10:14:12.656Z,2128.00
2023-05-24T10:15:12.594Z,2192.00
2023-05-24T10:17:12.610Z,2768.00
2023-05-24T10:18:14.174Z,2984.00
2023-05-24T10:29:36.191Z,1664.00
2023-05-24T10:30:35.967Z,1752.00
2023-05-24T10:31:36.224Z,1772.00
2023-05-24T10:32:35.994Z,1768.00
2023-05-24T10:33:36.215Z,1772.00
2023-05-24T10:34:35.947Z,1856.00
2023-05-24T10:35:35.921Z,1960.00
2023-05-24T10:36:35.951Z,1912.00
2023-05-24T10:37:35.961Z,1844.00
2023-05-24T10:38:35.922Z,1816.00
2023-05-24T10:39:35.975Z,1852.00
2023-05-24T10:40:35.912Z,2020.00
2023-05-24T10:41:35.917Z,2224.00
2023-05-24T10:42:35.928Z,2628.00
2023-05-24T10:43:35.896Z,3356.00
2023-05-24T10:44:35.900Z,3888.00
2023-05-24T10:45:36.193Z,4172.00
2023-05-24T10:46:35.955Z,4352.00
2023-05-24T10:47:38.338Z,4188.00
2023-05-24T10:48:35.924Z,3936.00
2023-05-24T10:49:35.885Z,3608.00
2023-05-24T10:50:35.958Z,3180.00
2023-05-24T10:51:35.900Z,2756.00
2023-05-24T10:52:35.889Z,2516.00
2023-05-24T10:53:35.931Z,2616.00
2023-05-24T10:54:35.882Z,3020.00
2023-05-24T10:55:35.898Z,3432.00
2023-05-24T10:56:35.880Z,3672.00
2023-05-24T10:57:35.873Z,3968.00
2023-05-24T10:58:35.865Z,4424.00
2023-05-24T10:59:35.864Z,5120.00
2023-05-24T11:00:36.316Z,5868.00
2023-05-24T11:01:36.168Z,5692.00
2023-05-24T11:02:35.954Z,5348.00
2023-05-24T11:03:35.880Z,5028.00
2023-05-24T11:05:35.860Z,4312.00
2023-05-24T11:06:35.866Z,4176.00
2023-05-24T11:07:35.896Z,3828.00
2023-05-24T11:08:35.993Z,3484.00
2023-05-24T11:09:35.868Z,3232.00
2023-05-24T11:10:35.877Z,3284.00
2023-05-24T11:11:35.952Z,3708.00
2023-05-24T11:12:35.925Z,4220.00
2023-05-24T11:13:35.959Z,4908.00
2023-05-24T11:14:36.243Z,5512.00
2023-05-24T11:15:37.178Z,5892.00
2023-05-24T11:16:38.527Z,5992.00
2023-05-24T11:17:35.978Z,6124.00
2023-05-24T11:18:35.864Z,6120.00
2023-05-24T11:19:35.876Z,5712.00
2023-05-24T11:20:35.925Z,4928.00
2023-05-24T11:21:35.839Z,4068.00
2023-05-24T11:22:35.884Z,3436.00
2023-05-24T11:23:38.111Z,2952.00
2023-05-24T11:24:35.880Z,2752.00
2023-05-24T11:25:35.883Z,2772.00
2023-05-24T11:26:36.243Z,2824.00
2023-05-24T11:27:35.830Z,2808.00
2023-05-24T11:28:35.880Z,2812.00
2023-05-24T11:29:38.184Z,2948.00
2023-05-24T11:30:35.817Z,3076.00
2023-05-24T11:31:37.960Z,3052.00
2023-05-24T11:32:35.852Z,2976.00
2023-05-24T11:33:35.856Z,2668.00
2023-05-24T11:34:35.873Z,2508.00
2023-05-24T11:35:35.822Z,2468.00
2023-05-24T11:36:35.819Z,2540.00
2023-05-24T11:37:46.046Z,2668.00
2023-05-24T11:38:35.809Z,2532.00
2023-05-24T11:39:35.819Z,2176.00
2023-05-24T11:40:35.853Z,1868.00
2023-05-24T11:41:35.862Z,1676.00
2023-05-24T11:42:35.826Z,1588.00
2023-05-24T11:43:35.827Z,1548.00
2023-05-24T11:44:35.810Z,1496.00
2023-05-24T11:45:35.823Z,1448.00
2023-05-24T11:46:35.817Z,1408.00
2023-05-24T11:47:35.879Z,1372.00
2023-05-24T11:48:35.837Z,1348.00
2023-05-24T11:49:35.962Z,1316.00
2023-05-24T11:50:45.733Z,1372.00
2023-05-24T11:51:35.831Z,1516.00
2023-05-24T11:52:35.806Z,1740.00
2023-05-24T11:53:35.812Z,1988.00
2023-05-24T11:54:35.800Z,2224.00
2023-05-24T11:55:35.803Z,2392.00
2023-05-24T11:56:36.712Z,2404.00
2023-05-24T11:57:35.829Z,2244.00
2023-05-24T11:58:35.817Z,2060.00
2023-05-24T11:59:35.827Z,1892.00
2023-05-24T12:00:35.801Z,1832.00
2023-05-24T12:01:35.788Z,1884.00
2023-05-24T12:02:35.972Z,2024.00
2023-05-24T12:03:35.999Z,2172.00
2023-05-24T12:04:35.854Z,2200.00
2023-05-24T12:05:35.837Z,2088.00
2023-05-24T12:06:35.782Z,2064.00
2023-05-24T12:07:35.791Z,2156.00
2023-05-24T12:08:35.795Z,2300.00
2023-05-24T12:09:35.801Z,2480.00
2023-05-24T12:10:35.827Z,2608.00
2023-05-24T12:11:35.794Z,2616.00
2023-05-24T12:12:45.413Z,2556.00
2023-05-24T12:13:35.775Z,2444.00
2023-05-24T12:14:35.779Z,2348.00
2023-05-24T12:15:35.793Z,2280.00
2023-05-24T12:16:35.866Z,2268.00
2023-05-24T12:17:35.771Z,2320.00
2023-05-24T12:18:35.759Z,2404.00
2023-05-24T12:19:36.133Z,2424.00
2023-05-24T12:20:35.797Z,2364.00
2023-05-24T12:21:35.811Z,2288.00
2023-05-24T12:22:35.763Z,2224.00
2023-05-24T12:23:35.756Z,2224.00
2023-05-24T12:24:35.907Z,2324.00
2023-05-24T12:25:35.760Z,2412.00
2023-05-24T12:26:35.748Z,2492.00
2023-05-24T12:27:35.776Z,2488.00
2023-05-24T12:28:35.741Z,2388.00
2023-05-24T12:29:35.761Z,2280.00
2023-05-24T12:30:35.737Z,2216.00
2023-05-24T12:31:35.947Z,2152.00
2023-05-24T12:32:35.805Z,2072.00
2023-05-24T12:33:35.734Z,1996.00
2023-05-24T12:34:35.743Z,1956.00
2023-05-24T12:35:35.757Z,1940.00
2023-05-24T12:36:35.746Z,1932.00
2023-05-24T12:37:35.766Z,1912.00
2023-05-24T12:38:35.748Z,1908.00
2023-05-24T12:39:35.733Z,1924.00
2023-05-24T12:40:35.755Z,1932.00
2023-05-24T12:41:35.753Z,1952.00
2023-05-24T12:42:35.728Z,2004.00
2023-05-24T12:43:35.759Z,2032.00
2023-05-24T12:44:35.730Z,2052.00
2023-05-24T12:45:35.722Z,2064.00
2023-05-24T12:46:35.818Z,2084.00
2023-05-24T12:47:35.794Z,2116.00
2023-05-24T12:48:35.705Z,2108.00
2023-05-24T12:49:35.799Z,2096.00
2023-05-24T12:50:35.701Z,2248.00
2023-05-24T12:51:35.704Z,2424.00
2023-05-24T12:52:35.717Z,2520.00
2023-05-24T12:53:35.713Z,2588.00
2023-05-24T12:54:35.732Z,2548.00
2023-05-24T12:55:35.747Z,2476.00
2023-05-24T12:56:35.696Z,2432.00
2023-05-24T12:57:35.699Z,2384.00
2023-05-24T12:58:35.711Z,2336.00
2023-05-24T12:59:35.718Z,2280.00
2023-05-24T13:00:35.712Z,2208.00
2023-05-24T13:01:35.795Z,2100.00
2023-05-24T13:02:36.976Z,1944.00
2023-05-24T13:03:35.680Z,1764.00
2023-05-24T13:04:35.697Z,1564.00
2023-05-24T13:05:35.723Z,1380.00
2023-05-24T13:06:35.677Z,1232.00
2023-05-24T13:07:35.677Z,1116.00
2023-05-24T13:08:36.654Z,1048.00
2023-05-24T13:09:35.714Z,992.00
2023-05-24T13:10:35.706Z,936.00
2023-05-24T13:11:35.668Z,880.00
2023-05-24T13:12:35.668Z,832.00
2023-05-24T13:13:35.699Z,804.00
2023-05-24T13:14:35.692Z,788.00
2023-05-24T13:15:35.663Z,784.00
2023-05-24T13:16:35.788Z,784.00
2023-05-24T13:17:35.737Z,792.00
2023-05-24T13:18:35.713Z,804.00
2023-05-24T13:19:35.681Z,828.00
2023-05-24T13:20:35.719Z,848.00
2023-05-24T13:21:35.669Z,872.00
2023-05-24T13:22:35.695Z,888.00
2023-05-24T13:23:35.665Z,892.00
2023-05-24T13:24:35.639Z,908.00
2023-05-24T13:25:35.671Z,928.00
2023-05-24T13:26:35.630Z,956.00
2023-05-24T13:27:35.640Z,988.00
2023-05-24T13:28:35.698Z,1028.00
2023-05-24T13:29:45.579Z,1072.00
2023-05-24T13:30:35.698Z,1120.00
2023-05-24T13:31:35.697Z,1176.00
2023-05-24T13:32:35.651Z,1244.00
2023-05-24T13:33:35.624Z,1316.00
2023-05-24T13:34:35.692Z,1368.00
2023-05-24T13:35:35.638Z,1416.00
2023-05-24T13:36:35.621Z,1460.00
2023-05-24T13:37:35.626Z,1508.00
2023-05-24T13:38:35.607Z,1568.00
2023-05-24T13:39:35.634Z,1644.00
2023-05-24T13:40:35.626Z,1696.00
2023-05-24T13:41:35.699Z,1724.00
2023-05-24T13:42:35.681Z,1756.00
2023-05-24T13:43:35.600Z,1796.00
2023-05-24T13:44:35.622Z,1840.00
2023-05-24T13:45:35.591Z,1884.00
2023-05-24T13:46:35.719Z,1924.00
2023-05-24T13:47:39.819Z,1960.00
2023-05-24T13:48:35.672Z,1932.00
2023-05-24T13:49:35.590Z,1884.00
2023-05-24T13:50:35.585Z,1848.00
2023-05-24T13:51:35.587Z,1776.00
2023-05-24T13:52:35.593Z,1704.00
2023-05-24T13:53:35.580Z,1648.00
2023-05-24T13:54:35.597Z,1624.00
2023-05-24T13:55:35.574Z,1628.00
2023-05-24T13:56:35.750Z,1624.00
2023-05-24T13:57:50.543Z,1648.00
2023-05-24T13:58:35.578Z,1684.00
2023-05-24T13:59:35.578Z,1724.00
2023-05-24T14:00:35.563Z,1800.00
2023-05-24T14:01:35.604Z,1948.00
2023-05-24T14:02:35.646Z,2120.00
2023-05-24T14:03:35.560Z,2160.00
2023-05-24T14:04:35.582Z,2196.00
2023-05-24T14:05:35.657Z,2272.00
2023-05-24T14:06:35.567Z,2344.00
2023-05-24T14:07:35.639Z,2448.00
2023-05-24T14:08:35.579Z,2480.00
2023-05-24T14:09:35.541Z,2460.00
2023-05-24T14:10:35.554Z,2344.00
2023-05-24T14:11:35.540Z,2208.00
2023-05-24T14:12:35.558Z,2156.00
2023-05-24T14:14:57.998Z,2448.00
2023-05-24T14:15:35.566Z,2576.00
2023-05-24T14:16:35.576Z,2676.00
2023-05-24T14:17:35.567Z,2804.00
2023-05-24T14:18:35.543Z,2776.00
2023-05-24T14:19:35.528Z,2816.00
2023-05-24T14:20:35.600Z,2800.00
2023-05-24T14:21:35.512Z,2800.00
2023-05-24T14:22:35.538Z,2836.00
2023-05-24T14:23:35.523Z,3144.00
2023-05-24T14:24:35.549Z,3100.00
2023-05-24T14:25:35.526Z,3160.00
2023-05-24T14:26:35.506Z,3048.00
2023-05-24T14:27:35.522Z,2880.00
2023-05-24T14:28:35.518Z,2772.00
2023-05-24T14:29:35.519Z,2656.00
2023-05-24T14:30:35.516Z,2456.00
2023-05-24T14:31:35.522Z,2264.00
2023-05-24T14:32:35.536Z,2132.00
2023-05-24T14:33:35.527Z,2112.00
2023-05-24T14:34:35.498Z,2136.00
2023-05-24T14:35:35.497Z,2220.00
2023-05-24T14:36:35.516Z,2436.00
2023-05-24T14:37:35.514Z,2736.00
2023-05-24T14:38:35.498Z,2880.00
2023-05-24T14:39:35.485Z,2928.00
2023-05-24T14:40:35.536Z,2992.00
2023-05-24T14:41:35.510Z,2808.00
2023-05-24T14:42:35.485Z,2636.00
2023-05-24T14:43:35.488Z,2520.00
2023-05-24T14:44:35.480Z,2344.00
2023-05-24T14:45:35.642Z,2188.00
2023-05-24T14:46:35.526Z,2080.00
2023-05-24T14:47:35.486Z,1972.00
2023-05-24T14:48:35.499Z,1920.00
2023-05-24T14:49:35.467Z,1892.00
2023-05-24T14:50:35.468Z,1916.00
2023-05-24T14:51:35.476Z,1896.00
2023-05-24T14:52:35.466Z,1880.00
2023-05-24T14:53:35.475Z,1852.00
2023-05-24T14:54:35.464Z,1840.00
2023-05-24T14:55:35.460Z,1836.00
2023-05-24T14:56:35.470Z,1872.00
2023-05-24T14:57:35.491Z,2860.00
2023-05-24T14:58:35.458Z,2352.00
2023-05-24T14:59:35.456Z,2136.00
2023-05-24T15:00:35.463Z,2368.00
2023-05-24T15:01:35.527Z,2428.00
2023-05-24T15:02:35.572Z,2608.00
2023-05-24T15:03:35.614Z,2876.00
2023-05-24T15:04:35.443Z,3916.00
2023-05-24T15:05:35.451Z,5324.00
2023-05-24T15:06:35.539Z,17824.00
2023-05-24T15:07:35.446Z,19552.00
2023-05-24T15:08:35.455Z,11192.00
2023-05-24T15:09:35.440Z,5948.00
2023-05-24T15:10:35.433Z,4068.00
2023-05-24T15:11:35.439Z,3144.00
2023-05-24T15:12:36.396Z,2760.00
2023-05-24T15:13:35.444Z,2564.00
2023-05-24T15:14:35.428Z,2344.00
2023-05-24T15:15:35.425Z,2184.00
2023-05-24T15:16:35.475Z,2116.00
2023-05-24T15:17:35.453Z,2156.00
2023-05-24T15:18:35.435Z,2352.00
2023-05-24T15:19:35.457Z,2796.00
2023-05-24T15:20:36.030Z,3188.00
2023-05-24T15:21:35.444Z,3220.00
2023-05-24T15:22:35.425Z,4212.00
2023-05-24T15:23:35.422Z,4212.00
2023-05-24T15:24:35.416Z,4324.00
2023-05-24T15:25:35.423Z,4160.00
2023-05-24T15:26:35.431Z,4304.00
2023-05-24T15:27:35.412Z,4380.00
2023-05-24T15:28:35.417Z,4144.00
2023-05-24T15:29:35.406Z,4172.00
2023-05-24T15:30:35.417Z,4320.00
2023-05-24T15:31:35.552Z,4276.00
2023-05-24T15:32:35.424Z,3908.00
2023-05-24T15:33:35.440Z,3492.00
2023-05-24T15:34:35.421Z,3120.00
2023-05-24T15:35:35.404Z,2880.00
2023-05-24T15:36:35.421Z,2740.00
2023-05-24T15:37:35.406Z,2668.00
2023-05-24T15:38:35.410Z,2816.00
2023-05-24T15:39:35.407Z,3132.00
2023-05-24T15:40:35.399Z,3192.00
2023-05-24T15:41:35.535Z,2948.00
2023-05-24T15:42:35.393Z,2652.00
2023-05-24T15:43:35.409Z,2300.00
2023-05-24T15:44:35.403Z,2020.00
2023-05-24T15:45:35.402Z,1876.00
2023-05-24T15:46:35.479Z,1828.00
2023-05-24T15:47:35.462Z,1908.00
2023-05-24T15:48:35.413Z,2068.00
2023-05-24T15:49:35.453Z,2240.00
2023-05-24T15:50:54.042Z,2360.00
2023-05-24T15:52:02.607Z,2588.00
2023-05-24T15:52:35.404Z,2956.00
2023-05-24T15:53:35.420Z,3416.00
2023-05-24T15:54:35.399Z,4108.00
2023-05-24T15:55:35.383Z,4420.00
2023-05-24T15:56:35.391Z,4328.00
2023-05-24T15:57:35.383Z,4396.00
2023-05-24T15:58:35.415Z,4456.00
2023-05-24T15:59:35.415Z,4524.00
2023-05-24T16:00:35.377Z,4468.00
2023-05-24T16:01:35.496Z,4236.00
2023-05-24T16:02:35.437Z,4008.00
2023-05-24T16:03:35.462Z,3676.00
2023-05-24T16:04:35.382Z,3200.00
2023-05-24T16:05:35.457Z,2644.00
2023-05-24T16:06:35.384Z,2120.00
2023-05-24T16:07:35.400Z,1724.00
2023-05-24T16:08:35.357Z,1472.00
2023-05-24T16:09:35.385Z,1300.00
2023-05-24T16:10:35.373Z,1176.00
2023-05-24T16:11:35.376Z,1104.00
2023-05-24T16:12:35.375Z,1072.00
2023-05-24T16:13:35.358Z,1092.00
2023-05-24T16:14:35.376Z,1156.00
2023-05-24T16:15:35.357Z,1236.00
2023-05-24T16:16:35.429Z,1308.00
2023-05-24T16:28:49.616Z,2556.00
2023-05-24T16:29:49.583Z,2316.00
2023-05-24T16:30:49.586Z,2116.00
2023-05-24T16:31:49.609Z,2036.00
2023-05-24T16:32:49.618Z,2048.00
2023-05-24T16:33:49.560Z,2088.00
2023-05-24T16:34:56.753Z,2120.00
2023-05-24T16:35:49.547Z,2120.00
2023-05-24T16:36:49.552Z,2112.00
2023-05-24T16:37:49.544Z,2128.00
2023-05-24T16:38:49.545Z,2156.00
2023-05-24T16:39:49.545Z,2172.00
2023-05-24T16:40:49.538Z,2176.00
2023-05-24T16:41:49.549Z,2204.00
2023-05-24T16:42:49.553Z,2272.00
2023-05-24T16:43:49.534Z,2336.00
2023-05-24T16:44:49.540Z,2320.00
2023-05-24T16:45:49.598Z,2268.00
2023-05-24T16:46:49.571Z,2216.00
2023-05-24T16:47:49.650Z,2172.00
2023-05-24T16:48:49.581Z,2096.00
2023-05-24T16:49:49.531Z,1988.00
2023-05-24T16:50:49.528Z,1900.00
2023-05-24T16:51:49.527Z,1848.00
2023-05-24T16:52:49.519Z,1860.00
2023-05-24T16:53:49.528Z,1892.00
2023-05-24T16:54:49.512Z,1920.00
2023-05-24T16:55:49.516Z,1912.00